createdAt,value
2022-08-02T00:00:20.712Z,21.30
2022-08-02T00:02:49.349Z,21.20
2022-08-02T00:05:18.416Z,21.10
2022-08-02T00:07:46.244Z,21.10
2022-08-02T00:10:14.108Z,21.10
2022-08-02T00:12:41.818Z,21.10
2022-08-02T00:15:10.863Z,21.10
2022-08-02T00:17:44.142Z,21.10
2022-08-02T00:20:12.529Z,21.00
2022-08-02T00:22:41.891Z,21.00
2022-08-02T00:25:09.901Z,21.00
2022-08-02T00:27:37.617Z,21.00
2022-08-02T00:30:05.886Z,21.00
2022-08-02T00:32:33.715Z,20.90
2022-08-02T00:35:01.435Z,20.90
2022-08-02T00:37:30.155Z,20.90
2022-08-02T00:39:59.199Z,20.90
2022-08-02T00:42:26.979Z,20.90
2022-08-02T00:44:54.945Z,20.90
2022-08-02T00:47:22.676Z,20.90
2022-08-02T00:49:50.426Z,20.90
2022-08-02T00:52:18.153Z,20.90
2022-08-02T00:54:45.954Z,20.90
2022-08-02T00:57:18.465Z,20.90
2022-08-02T00:59:47.304Z,20.70
2022-08-02T01:02:15.435Z,20.60
2022-08-02T01:04:43.619Z,20.50
2022-08-02T01:07:12.761Z,20.10
2022-08-02T01:09:42.787Z,20.20
2022-08-02T01:12:11.459Z,20.20
2022-08-02T01:14:42.725Z,20.20
2022-08-02T01:17:17.186Z,20.10
2022-08-02T01:19:51.647Z,20.00
2022-08-02T01:23:00.468Z,20.00
2022-08-02T01:25:39.442Z,20.10
2022-08-02T01:28:27.744Z,20.10
2022-08-02T01:31:02.076Z,20.10
2022-08-02T01:33:36.594Z,20.20
2022-08-02T01:36:08.130Z,20.20
2022-08-02T01:38:40.776Z,20.30
2022-08-02T01:41:10.516Z,20.40
2022-08-02T01:43:43.079Z,20.40
2022-08-02T01:46:13.654Z,20.50
2022-08-02T01:48:42.754Z,20.50
2022-08-02T01:51:14.246Z,20.30
2022-08-02T01:53:44.700Z,20.30
2022-08-02T01:56:13.566Z,20.10
2022-08-02T01:58:44.663Z,20.10
2022-08-02T02:01:15.092Z,20.10
2022-08-02T02:03:49.458Z,20.10
2022-08-02T02:06:18.976Z,20.10
2022-08-02T02:08:50.071Z,20.10
2022-08-02T02:12:09.430Z,20.10
2022-08-02T02:14:10.119Z,20.20
2022-08-02T02:16:39.056Z,20.10
2022-08-02T02:19:08.530Z,20.20
2022-08-02T02:21:36.422Z,20.20
2022-08-02T02:24:05.876Z,20.20
2022-08-02T02:26:51.947Z,20.10
2022-08-02T02:29:22.732Z,20.10
2022-08-02T02:31:53.646Z,20.00
2022-08-02T02:34:28.565Z,20.00
2022-08-02T02:37:00.308Z,20.00
2022-08-02T02:39:29.439Z,20.00
2022-08-02T02:42:02.990Z,19.70
2022-08-02T02:44:33.196Z,19.80
2022-08-02T02:47:01.629Z,19.90
2022-08-02T02:49:35.095Z,19.80
2022-08-02T02:52:04.439Z,19.70
2022-08-02T02:54:35.341Z,19.70
2022-08-02T02:57:06.394Z,19.60
2022-08-02T02:59:36.504Z,19.50
2022-08-02T03:02:17.980Z,19.30
2022-08-02T03:04:57.234Z,19.30
2022-08-02T03:07:26.348Z,19.40
2022-08-02T03:09:55.163Z,19.40
2022-08-02T03:12:30.605Z,19.50
2022-08-02T03:15:03.730Z,19.50
2022-08-02T03:17:40.124Z,19.40
2022-08-02T03:20:11.721Z,19.20
2022-08-02T03:22:39.656Z,19.20
2022-08-02T03:25:08.847Z,19.30
2022-08-02T03:27:36.756Z,19.20
2022-08-02T03:30:08.971Z,19.10
2022-08-02T03:32:38.389Z,19.10
2022-08-02T03:35:10.027Z,19.10
2022-08-02T03:37:38.695Z,19.20
2022-08-02T03:40:09.300Z,19.20
2022-08-02T03:42:37.272Z,19.10
2022-08-02T03:45:09.829Z,19.00
2022-08-02T03:47:39.579Z,19.00
2022-08-02T03:50:09.236Z,19.10
2022-08-02T03:52:37.794Z,18.90
2022-08-02T03:55:06.514Z,18.70
2022-08-02T03:57:34.567Z,18.70
2022-08-02T04:00:02.336Z,18.70
2022-08-02T04:03:11.087Z,18.80
2022-08-02T04:06:00.996Z,18.70
2022-08-02T04:08:35.035Z,18.60
2022-08-02T04:11:18.475Z,18.60
2022-08-02T04:13:46.555Z,18.50
2022-08-02T04:16:21.592Z,18.40
2022-08-02T04:18:56.104Z,18.40
2022-08-02T04:21:49.849Z,18.50
2022-08-02T04:24:18.713Z,18.50
2022-08-02T04:26:48.982Z,18.60
2022-08-02T04:29:19.360Z,18.70
2022-08-02T04:31:47.380Z,18.70
2022-08-02T04:34:16.674Z,18.70
2022-08-02T04:36:44.579Z,18.80
2022-08-02T04:39:12.342Z,18.90
2022-08-02T04:41:44.522Z,18.90
2022-08-02T04:44:12.552Z,19.00
2022-08-02T04:46:41.145Z,19.10
2022-08-02T04:49:09.149Z,19.10
2022-08-02T04:51:38.962Z,19.30
2022-08-02T04:54:09.897Z,19.20
2022-08-02T04:56:38.366Z,19.30
2022-08-02T04:59:07.052Z,19.30
2022-08-02T05:01:36.111Z,19.30
2022-08-02T05:04:04.615Z,19.30
2022-08-02T05:06:32.773Z,19.30
2022-08-02T05:09:03.025Z,19.40
2022-08-02T05:11:36.263Z,19.50
2022-08-02T05:14:05.146Z,19.60
2022-08-02T05:16:32.914Z,19.80
2022-08-02T05:19:00.942Z,20.10
2022-08-02T05:21:32.309Z,20.30
2022-08-02T05:24:00.143Z,20.60
2022-08-02T05:26:29.284Z,20.80
2022-08-02T05:28:57.040Z,21.00
2022-08-02T05:31:24.804Z,21.00
2022-08-02T05:33:52.730Z,20.90
2022-08-02T05:36:21.694Z,21.10
2022-08-02T05:38:50.692Z,21.30
2022-08-02T05:41:18.985Z,21.60
2022-08-02T05:43:48.722Z,21.70
2022-08-02T05:46:16.467Z,21.90
2022-08-02T05:48:44.787Z,22.00
2022-08-02T05:51:19.451Z,22.00
2022-08-02T05:53:51.522Z,22.30
2022-08-02T05:56:25.595Z,22.60
2022-08-02T05:59:01.634Z,22.90
2022-08-02T06:01:33.979Z,23.20
2022-08-02T06:04:02.923Z,23.20
2022-08-02T06:06:33.051Z,23.50
2022-08-02T06:09:03.740Z,23.80
2022-08-02T06:11:37.454Z,24.00
2022-08-02T06:14:08.102Z,24.50
2022-08-02T06:16:41.204Z,25.10
2022-08-02T06:19:12.543Z,25.90
2022-08-02T06:22:34.075Z,26.90
2022-08-02T06:24:32.038Z,27.80
2022-08-02T06:27:01.566Z,28.90
2022-08-02T06:29:38.866Z,29.90
2022-08-02T06:32:08.706Z,30.70
2022-08-02T06:34:38.256Z,31.40
2022-08-02T06:37:14.777Z,31.90
2022-08-02T06:39:48.493Z,32.40
2022-08-02T06:42:27.001Z,32.80
2022-08-02T06:44:58.610Z,33.10
2022-08-02T06:47:27.223Z,33.40
2022-08-02T06:49:56.713Z,33.30
2022-08-02T06:52:28.708Z,33.50
2022-08-02T06:54:58.113Z,33.70
2022-08-02T06:57:25.884Z,34.10
2022-08-02T06:59:53.799Z,34.20
2022-08-02T07:02:23.315Z,34.30
2022-08-02T07:04:51.386Z,34.20
2022-08-02T07:07:19.230Z,34.70
2022-08-02T07:09:56.666Z,35.10
2022-08-02T07:12:32.496Z,35.40
2022-08-02T07:15:01.244Z,35.80
2022-08-02T07:17:31.226Z,36.10
2022-08-02T07:19:59.761Z,36.60
2022-08-02T07:22:28.187Z,36.70
2022-08-02T07:24:56.724Z,37.00
2022-08-02T07:27:25.152Z,37.10
2022-08-02T07:29:55.187Z,37.60
2022-08-02T07:32:25.895Z,38.10
2022-08-02T07:34:58.883Z,38.40
2022-08-02T07:37:53.551Z,39.10
2022-08-02T07:40:20.020Z,39.70
2022-08-02T07:42:49.686Z,40.30
2022-08-02T07:45:17.695Z,40.40
2022-08-02T07:47:46.134Z,40.20
2022-08-02T07:50:19.878Z,39.90
2022-08-02T07:52:57.162Z,40.00
2022-08-02T07:55:39.917Z,40.20
2022-08-02T07:58:12.977Z,40.20
2022-08-02T08:00:44.109Z,40.50
2022-08-02T08:03:12.619Z,40.90
2022-08-02T08:05:42.022Z,41.20
2022-08-02T08:08:15.227Z,41.40
2022-08-02T08:10:48.231Z,41.50
2022-08-02T08:13:16.880Z,41.90
2022-08-02T08:15:51.749Z,42.30
2022-08-02T08:18:25.351Z,42.60
2022-08-02T08:20:54.573Z,42.50
2022-08-02T08:23:22.343Z,42.10
2022-08-02T08:25:50.221Z,42.30
2022-08-02T08:28:20.589Z,41.90
2022-08-02T08:30:48.541Z,42.40
2022-08-02T08:33:16.613Z,42.70
2022-08-02T08:35:45.720Z,43.00
2022-08-02T08:38:15.634Z,43.20
2022-08-02T08:40:44.912Z,42.60
2022-08-02T08:43:14.376Z,42.90
2022-08-02T08:45:44.266Z,42.80
2022-08-02T08:48:30.151Z,43.20
2022-08-02T08:51:08.285Z,42.60
2022-08-02T08:53:44.344Z,42.90
2022-08-02T08:56:16.261Z,43.30
2022-08-02T08:58:45.661Z,43.00
2022-08-02T09:01:14.963Z,41.40
2022-08-02T09:03:43.150Z,41.70
2022-08-02T09:06:11.040Z,42.40
2022-08-02T09:08:40.165Z,43.00
2022-08-02T09:11:15.582Z,43.00
2022-08-02T09:13:52.125Z,43.50
2022-08-02T09:16:30.081Z,43.50
2022-08-02T09:18:58.327Z,44.10
2022-08-02T09:21:35.871Z,43.90
2022-08-02T09:24:17.618Z,44.30
2022-08-02T09:26:51.151Z,44.70
2022-08-02T09:29:22.489Z,44.90
2022-08-02T09:31:51.398Z,45.30
2022-08-02T09:34:19.839Z,45.20
2022-08-02T09:36:48.547Z,45.10
2022-08-02T09:39:26.296Z,45.10
2022-08-02T09:42:08.178Z,44.70
2022-08-02T09:44:36.684Z,44.70
2022-08-02T09:47:16.375Z,44.80
2022-08-02T09:49:52.381Z,44.70
2022-08-02T09:52:43.078Z,43.90
2022-08-02T09:55:14.159Z,43.70
2022-08-02T09:57:42.093Z,44.10
2022-08-02T10:00:14.272Z,44.60
2022-08-02T10:03:06.476Z,44.60
2022-08-02T10:05:54.079Z,44.60
2022-08-02T10:08:23.659Z,44.30
2022-08-02T10:11:00.226Z,44.80
2022-08-02T10:13:30.390Z,45.00
2022-08-02T10:15:58.456Z,44.20
2022-08-02T10:18:38.799Z,43.60
2022-08-02T10:21:15.141Z,43.60
2022-08-02T10:23:46.380Z,44.10
2022-08-02T10:26:18.145Z,44.40
2022-08-02T10:28:49.205Z,44.30
2022-08-02T10:31:21.493Z,44.30
2022-08-02T10:33:52.806Z,43.60
2022-08-02T10:36:23.436Z,42.40
2022-08-02T10:38:51.642Z,42.20
2022-08-02T10:41:43.478Z,43.00
2022-08-02T10:44:24.054Z,43.90
2022-08-02T10:47:23.867Z,43.90
2022-08-02T10:49:55.663Z,43.90
2022-08-02T10:52:24.695Z,43.60
2022-08-02T10:54:58.341Z,43.60
2022-08-02T10:57:29.745Z,43.80
2022-08-02T11:00:03.597Z,43.50
2022-08-02T11:02:38.932Z,43.90
2022-08-02T11:05:09.869Z,44.50
2022-08-02T11:07:40.334Z,45.10
2022-08-02T11:10:28.880Z,45.10
2022-08-02T11:13:04.704Z,45.80
2022-08-02T11:15:49.214Z,45.20
2022-08-02T11:18:21.996Z,45.10
2022-08-02T11:21:23.079Z,45.10
2022-08-02T11:23:50.958Z,45.40
2022-08-02T11:26:48.469Z,45.60
2022-08-02T11:29:18.337Z,45.70
2022-08-02T11:31:46.901Z,46.40
2022-08-02T11:34:36.823Z,46.70
2022-08-02T11:37:04.866Z,46.70
2022-08-02T11:39:32.617Z,46.50
2022-08-02T11:42:01.667Z,46.50
2022-08-02T11:44:39.988Z,45.90
2022-08-02T11:47:08.552Z,45.70
2022-08-02T11:49:38.361Z,46.00
2022-08-02T11:52:11.793Z,46.20
2022-08-02T11:54:41.883Z,45.80
2022-08-02T11:57:16.836Z,45.30
2022-08-02T11:59:50.575Z,45.30
2022-08-02T12:02:20.826Z,45.50
2022-08-02T12:04:58.831Z,45.10
2022-08-02T12:07:34.571Z,45.20
2022-08-02T12:10:07.635Z,44.80
2022-08-02T12:12:47.376Z,44.30
2022-08-02T12:15:31.506Z,43.90
2022-08-02T12:18:17.846Z,43.90
2022-08-02T12:20:46.960Z,44.20
2022-08-02T12:23:15.044Z,43.80
2022-08-02T12:25:42.986Z,41.60
2022-08-02T12:28:22.094Z,41.90
2022-08-02T12:30:57.931Z,41.70
2022-08-02T12:33:28.581Z,41.10
2022-08-02T12:35:56.884Z,41.50
2022-08-02T12:38:24.752Z,41.40
2022-08-02T12:40:52.484Z,41.10
2022-08-02T12:43:22.207Z,40.90
2022-08-02T12:45:52.915Z,40.20
2022-08-02T12:48:38.359Z,39.20
2022-08-02T12:51:23.117Z,38.10
2022-08-02T12:53:59.753Z,37.20
2022-08-02T12:56:30.435Z,36.70
2022-08-02T12:58:59.014Z,36.20
2022-08-02T13:01:28.697Z,35.70
2022-08-02T13:04:11.519Z,35.50
2022-08-02T13:06:45.564Z,35.10
2022-08-02T13:09:16.271Z,34.90
2022-08-02T13:11:44.779Z,34.80
2022-08-02T13:14:13.111Z,34.70
2022-08-02T13:16:43.283Z,34.50
2022-08-02T13:19:16.089Z,34.20
2022-08-02T13:22:01.137Z,34.10
2022-08-02T13:24:40.228Z,34.00
2022-08-02T13:27:21.630Z,34.00
2022-08-02T13:29:50.747Z,34.00
2022-08-02T13:32:18.951Z,34.00
2022-08-02T13:34:48.220Z,34.10
2022-08-02T13:37:16.764Z,34.00
2022-08-02T13:40:00.047Z,34.00
2022-08-02T13:42:28.146Z,34.00
2022-08-02T13:44:55.882Z,34.00
2022-08-02T13:47:26.668Z,33.90
2022-08-02T13:50:06.470Z,33.90
2022-08-02T13:52:34.802Z,33.90
2022-08-02T13:55:02.586Z,33.90
2022-08-02T13:57:30.379Z,33.70
2022-08-02T14:00:00.854Z,33.60
2022-08-02T14:02:28.841Z,33.50
2022-08-02T14:04:56.883Z,33.40
2022-08-02T14:07:26.046Z,33.30
2022-08-02T14:09:53.875Z,33.00
2022-08-02T14:12:21.657Z,33.00
2022-08-02T14:14:49.458Z,32.90
2022-08-02T14:17:18.657Z,32.90
2022-08-02T14:19:46.490Z,32.90
2022-08-02T14:22:14.338Z,32.90
2022-08-02T14:24:43.637Z,32.70
2022-08-02T14:27:11.574Z,32.70
2022-08-02T14:29:39.278Z,32.60
2022-08-02T14:32:07.537Z,32.70
2022-08-02T14:34:35.231Z,32.70
2022-08-02T14:37:03.161Z,32.60
2022-08-02T14:39:42.540Z,32.70
2022-08-02T14:42:13.250Z,32.70
2022-08-02T14:44:41.280Z,32.60
2022-08-02T14:47:09.623Z,32.70
2022-08-02T14:49:41.529Z,32.60
2022-08-02T14:52:13.024Z,32.60
2022-08-02T14:54:42.950Z,32.60
2022-08-02T14:57:12.023Z,32.50
2022-08-02T14:59:42.432Z,32.50
2022-08-02T15:02:13.217Z,32.50
2022-08-02T15:04:43.267Z,32.50
2022-08-02T15:07:12.187Z,32.50
2022-08-02T15:09:40.178Z,32.40
2022-08-02T15:12:08.863Z,32.30
2022-08-02T15:14:38.282Z,32.20
2022-08-02T15:17:06.112Z,32.10
2022-08-02T15:19:56.731Z,31.80
2022-08-02T15:22:22.174Z,31.70
2022-08-02T15:24:50.849Z,31.90
2022-08-02T15:27:18.991Z,32.00
2022-08-02T15:29:48.087Z,32.00
2022-08-02T15:32:18.731Z,32.00
2022-08-02T15:34:47.126Z,32.00
2022-08-02T15:37:14.918Z,32.00
2022-08-02T15:39:44.358Z,31.90
2022-08-02T15:42:12.777Z,32.00
2022-08-02T15:44:40.822Z,32.10
2022-08-02T15:47:09.931Z,32.10
2022-08-02T15:49:41.261Z,32.10
2022-08-02T15:52:10.884Z,32.10
2022-08-02T15:54:38.956Z,32.00
2022-08-02T15:57:07.009Z,32.00
2022-08-02T15:59:34.722Z,31.90
2022-08-02T16:02:03.027Z,31.90
2022-08-02T16:04:32.899Z,31.90
2022-08-02T16:07:01.619Z,31.90
2022-08-02T16:09:29.614Z,31.80
2022-08-02T16:11:57.629Z,31.80
2022-08-02T16:14:25.347Z,31.70
2022-08-02T16:16:53.096Z,31.70
2022-08-02T16:19:46.317Z,31.70
2022-08-02T16:22:11.681Z,31.60
2022-08-02T16:24:39.725Z,31.60
2022-08-02T16:27:09.219Z,31.60
2022-08-02T16:29:37.248Z,31.60
2022-08-02T16:32:05.765Z,31.50
2022-08-02T16:34:50.716Z,31.60
2022-08-02T16:37:22.536Z,31.50
2022-08-02T16:39:50.279Z,31.50
2022-08-02T16:42:24.974Z,31.50
2022-08-02T16:44:54.907Z,31.40
2022-08-02T16:47:43.535Z,31.40
2022-08-02T16:50:11.101Z,31.40
2022-08-02T16:52:40.563Z,31.30
2022-08-02T16:55:10.984Z,31.30
2022-08-02T16:57:43.370Z,31.20
2022-08-02T17:00:15.513Z,31.20
2022-08-02T17:02:44.108Z,31.10
2022-08-02T17:05:14.974Z,31.10
2022-08-02T17:08:07.264Z,31.10
2022-08-02T17:10:33.432Z,31.00
2022-08-02T17:13:11.298Z,31.00
2022-08-02T17:16:16.209Z,31.00
2022-08-02T17:18:28.788Z,31.00
2022-08-02T17:20:57.759Z,30.90
2022-08-02T17:24:04.319Z,30.80
2022-08-02T17:26:14.619Z,30.80
2022-08-02T17:29:14.589Z,30.80
2022-08-02T17:31:42.459Z,30.70
2022-08-02T17:34:12.247Z,30.70
2022-08-02T17:36:40.093Z,30.70
2022-08-02T17:39:09.123Z,30.70
2022-08-02T17:41:48.911Z,30.60
2022-08-02T17:44:37.401Z,30.60
2022-08-02T17:47:06.834Z,30.60
2022-08-02T17:49:38.277Z,30.50
2022-08-02T17:52:15.440Z,30.50
2022-08-02T17:55:03.327Z,30.50
2022-08-02T17:57:55.968Z,30.50
2022-08-02T18:00:19.955Z,30.40
2022-08-02T18:02:52.947Z,30.40
2022-08-02T18:05:35.429Z,30.40
2022-08-02T18:08:08.487Z,30.40
2022-08-02T18:10:39.106Z,30.30
2022-08-02T18:13:06.899Z,30.20
2022-08-02T18:15:35.538Z,30.20
2022-08-02T18:18:03.874Z,30.20
2022-08-02T18:20:31.851Z,30.10
2022-08-02T18:23:00.208Z,30.00
2022-08-02T18:25:36.884Z,29.90
2022-08-02T18:28:13.259Z,29.80
2022-08-02T18:30:41.078Z,29.70
2022-08-02T18:34:00.205Z,29.50
2022-08-02T18:35:57.011Z,29.30
2022-08-02T18:38:26.862Z,29.10
2022-08-02T18:40:55.692Z,28.90
2022-08-02T18:43:25.509Z,28.70
2022-08-02T18:46:06.663Z,28.60
2022-08-02T18:48:46.952Z,28.50
2022-08-02T18:51:18.933Z,28.30
2022-08-02T18:53:52.174Z,28.30
2022-08-02T18:56:24.646Z,28.00
2022-08-02T18:58:55.564Z,27.90
2022-08-02T19:01:33.970Z,27.80
2022-08-02T19:04:11.764Z,27.70
2022-08-02T19:06:39.682Z,27.70
2022-08-02T19:09:12.934Z,27.50
2022-08-02T19:11:48.028Z,27.40
2022-08-02T19:14:27.929Z,27.20
2022-08-02T19:16:59.405Z,27.00
2022-08-02T19:19:28.670Z,26.80
2022-08-02T19:22:17.353Z,26.60
2022-08-02T19:24:46.101Z,26.60
2022-08-02T19:27:14.837Z,26.50
2022-08-02T19:29:51.060Z,26.50
2022-08-02T19:32:40.113Z,26.40
2022-08-02T19:35:19.387Z,26.30
2022-08-02T19:37:59.600Z,26.00
2022-08-02T19:40:29.020Z,25.90
2022-08-02T19:44:25.305Z,25.80
2022-08-02T19:45:49.903Z,25.70
2022-08-02T19:48:24.275Z,25.60
2022-08-02T19:50:56.127Z,25.50
2022-08-02T19:53:28.910Z,25.50
2022-08-02T19:56:21.107Z,25.40
2022-08-02T19:58:50.248Z,25.30
2022-08-02T20:01:36.729Z,25.10
2022-08-02T20:04:06.488Z,25.00
2022-08-02T20:06:34.233Z,25.00
2022-08-02T20:09:02.271Z,24.90
2022-08-02T20:11:35.037Z,24.80
2022-08-02T20:14:04.991Z,24.70
2022-08-02T20:16:35.224Z,24.50
2022-08-02T20:19:03.488Z,24.40
2022-08-02T20:21:36.622Z,24.30
2022-08-02T20:24:06.506Z,24.20
2022-08-02T20:26:35.422Z,24.20
2022-08-02T20:29:03.992Z,24.10
2022-08-02T20:31:31.875Z,24.10
2022-08-02T20:34:01.271Z,24.00
2022-08-02T20:36:29.419Z,23.90
2022-08-02T20:38:57.146Z,23.90
2022-08-02T20:41:37.070Z,23.90
2022-08-02T20:44:16.270Z,24.00
2022-08-02T20:46:59.229Z,23.90
2022-08-02T20:49:41.182Z,23.90
2022-08-02T20:52:23.002Z,23.90
2022-08-02T20:54:53.645Z,23.90
2022-08-02T20:57:48.958Z,24.00
2022-08-02T21:00:10.359Z,24.00
2022-08-02T21:02:38.210Z,24.00
2022-08-02T21:05:17.531Z,23.70
2022-08-02T21:07:53.278Z,23.70
2022-08-02T21:10:22.512Z,23.70
2022-08-02T21:12:51.859Z,23.70
2022-08-02T21:15:20.896Z,23.70
2022-08-02T21:17:52.781Z,23.60
2022-08-02T21:20:29.313Z,23.70
2022-08-02T21:22:58.042Z,23.60
2022-08-02T21:25:42.668Z,23.60
2022-08-02T21:28:17.466Z,23.50
2022-08-02T21:30:45.991Z,23.50
2022-08-02T21:33:23.251Z,23.50
2022-08-02T21:35:52.988Z,23.30
2022-08-02T21:38:35.240Z,23.10
2022-08-02T21:41:05.938Z,23.10
2022-08-02T21:43:39.154Z,23.10
2022-08-02T21:46:06.957Z,23.00
2022-08-02T21:48:37.322Z,23.00
2022-08-02T21:51:06.380Z,23.00
2022-08-02T21:53:42.757Z,23.00
2022-08-02T21:56:11.357Z,23.00
2022-08-02T21:58:39.269Z,22.80
2022-08-02T22:01:07.057Z,22.70
2022-08-02T22:03:34.839Z,22.60
2022-08-02T22:06:04.683Z,22.60
2022-08-02T22:08:34.042Z,22.60
2022-08-02T22:11:03.810Z,22.70
2022-08-02T22:13:38.893Z,22.70
2022-08-02T22:16:15.293Z,22.70
2022-08-02T22:18:52.584Z,22.70
2022-08-02T22:21:22.833Z,22.80
2022-08-02T22:23:52.669Z,22.80
2022-08-02T22:26:21.219Z,22.60
2022-08-02T22:28:50.488Z,22.70
2022-08-02T22:31:19.715Z,22.70
2022-08-02T22:34:26.994Z,22.60
2022-08-02T22:36:54.225Z,22.60
2022-08-02T22:39:23.330Z,22.50
2022-08-02T22:42:05.211Z,22.40
2022-08-02T22:44:34.617Z,22.20
2022-08-02T22:47:06.905Z,22.00
2022-08-02T22:49:38.212Z,21.90
2022-08-02T22:52:14.228Z,21.90
2022-08-02T22:54:43.632Z,21.80
2022-08-02T22:57:11.745Z,21.90
2022-08-02T22:59:40.762Z,21.80
2022-08-02T23:02:08.958Z,21.90
2022-08-02T23:04:37.344Z,22.00
2022-08-02T23:07:05.223Z,22.00
2022-08-02T23:09:33.195Z,21.90
2022-08-02T23:12:02.349Z,22.00
2022-08-02T23:14:30.077Z,22.00
2022-08-02T23:17:11.889Z,22.00
2022-08-02T23:19:53.656Z,22.10
2022-08-02T23:22:24.275Z,22.00
2022-08-02T23:24:58.260Z,21.90
2022-08-02T23:27:27.278Z,22.00
2022-08-02T23:29:55.012Z,21.90
2022-08-02T23:32:25.705Z,21.90
2022-08-02T23:34:53.840Z,21.80
2022-08-02T23:37:22.440Z,21.80
2022-08-02T23:39:50.912Z,21.80
2022-08-02T23:42:18.893Z,21.70
2022-08-02T23:44:48.134Z,21.80
2022-08-02T23:47:16.691Z,21.70
2022-08-02T23:49:44.485Z,21.80
2022-08-02T23:52:12.653Z,21.70
2022-08-02T23:54:40.477Z,21.80
2022-08-02T23:57:20.187Z,21.70
2022-08-02T23:59:51.798Z,21.70
